Terminal Aerodrome Forecast
Issued by NWS Sioux Falls, SD

Home | Current Version | Previous Version | Text Only | Print | Product List | Glossary On
Versions: 1 2 3 4 5 6 7 8 9 10 11 12 13 14 15 16 17 18 19
087
FTUS43 KFSD 150938 AAA
TAFFSD
TAF AMD
KFSD 150938Z 1510/1606 00000KT P6SM SKC
      TEMPO 1511/1513 4SM BR
     FM151800 18006KT P6SM FEW250
     FM160200 16005KT P6SM BKN250=

USA.gov is the U.S. government's official web portal to all federal, state and local government web resources and services.